createdAt,value
2022-10-14T00:02:22.830Z,16.45
2022-10-14T00:04:49.263Z,14.20
2022-10-14T00:07:15.869Z,18.45
2022-10-14T00:09:42.762Z,17.13
2022-10-14T00:12:09.454Z,15.68
2022-10-14T00:14:35.899Z,16.60
2022-10-14T00:17:02.653Z,13.63
2022-10-14T00:19:29.084Z,13.57
2022-10-14T00:21:55.644Z,13.57
2022-10-14T00:24:22.613Z,14.40
2022-10-14T00:26:49.103Z,14.85
2022-10-14T00:29:18.814Z,13.65
2022-10-14T00:31:47.249Z,14.73
2022-10-14T00:34:15.860Z,19.08
2022-10-14T00:36:43.475Z,12.60
2022-10-14T00:39:10.926Z,12.95
2022-10-14T00:41:38.271Z,14.80
2022-10-14T00:44:15.704Z,15.18
2022-10-14T00:46:47.090Z,16.55
2022-10-14T00:49:15.511Z,16.88
2022-10-14T00:51:46.922Z,18.48
2022-10-14T00:54:16.714Z,14.93
2022-10-14T00:56:44.906Z,16.98
2022-10-14T00:59:11.987Z,14.10
2022-10-14T01:01:38.407Z,15.10
2022-10-14T01:04:04.984Z,14.57
2022-10-14T01:06:47.595Z,15.50
2022-10-14T01:10:04.055Z,19.20
2022-10-14T01:12:36.241Z,17.58
2022-10-14T01:15:23.040Z,17.15
2022-10-14T01:18:31.047Z,15.82
2022-10-14T01:21:01.585Z,14.70
2022-10-14T01:23:37.160Z,15.70
2022-10-14T01:26:15.800Z,19.33
2022-10-14T01:29:13.063Z,16.48
2022-10-14T01:31:47.781Z,15.25
2022-10-14T01:34:22.473Z,18.15
2022-10-14T01:36:55.856Z,16.45
2022-10-14T01:39:29.712Z,19.92
2022-10-14T01:42:02.323Z,16.77
2022-10-14T01:44:31.031Z,14.77
2022-10-14T01:46:59.272Z,17.33
2022-10-14T01:49:35.641Z,17.00
2022-10-14T01:52:16.427Z,19.20
2022-10-14T01:54:46.881Z,18.05
2022-10-14T01:57:19.451Z,18.17
2022-10-14T01:59:47.615Z,15.80
2022-10-14T02:02:14.365Z,17.38
2022-10-14T02:04:41.054Z,15.45
2022-10-14T02:07:16.805Z,16.92
2022-10-14T02:09:56.594Z,19.30
2022-10-14T02:12:37.932Z,17.67
2022-10-14T02:15:21.853Z,16.38
2022-10-14T02:17:57.345Z,19.33
2022-10-14T02:20:53.380Z,20.30
2022-10-14T02:25:50.137Z,15.93
2022-10-14T02:28:21.186Z,15.23
2022-10-14T02:31:04.675Z,18.98
2022-10-14T02:33:36.405Z,17.00
2022-10-14T02:36:05.686Z,15.02
2022-10-14T02:38:33.324Z,15.98
2022-10-14T02:41:04.558Z,15.32
2022-10-14T02:43:31.266Z,17.17
2022-10-14T02:46:00.505Z,15.80
2022-10-14T02:48:27.070Z,16.70
2022-10-14T02:50:53.499Z,15.57
2022-10-14T02:53:20.142Z,15.10
2022-10-14T02:55:46.806Z,18.42
2022-10-14T02:58:13.321Z,15.88
2022-10-14T03:00:39.745Z,14.93
2022-10-14T03:03:06.881Z,16.13
2022-10-14T03:05:33.498Z,13.30
2022-10-14T03:08:00.244Z,18.38
2022-10-14T03:10:26.856Z,18.08
2022-10-14T03:12:53.510Z,15.43
2022-10-14T03:15:19.893Z,15.27
2022-10-14T03:17:46.392Z,15.68
2022-10-14T03:20:12.840Z,17.55
2022-10-14T03:22:39.343Z,18.42
2022-10-14T03:25:06.289Z,17.50
2022-10-14T03:27:32.888Z,18.92
2022-10-14T03:29:59.430Z,16.85
2022-10-14T03:32:26.133Z,20.70
2022-10-14T03:34:52.531Z,17.98
2022-10-14T03:37:19.266Z,19.55
2022-10-14T03:39:45.743Z,16.25
2022-10-14T03:42:12.589Z,14.48
2022-10-14T03:44:38.958Z,14.90
2022-10-14T03:47:05.531Z,16.15
2022-10-14T03:49:31.964Z,14.48
2022-10-14T03:51:58.381Z,18.15
2022-10-14T03:54:24.925Z,18.33
2022-10-14T03:56:51.315Z,15.98
2022-10-14T03:59:17.860Z,17.23
2022-10-14T04:01:44.334Z,17.17
2022-10-14T04:04:11.291Z,16.55
2022-10-14T04:06:37.741Z,15.45
2022-10-14T04:09:05.254Z,16.75
2022-10-14T04:11:31.677Z,17.98
2022-10-14T04:13:59.295Z,18.52
2022-10-14T04:16:27.014Z,17.00
2022-10-14T04:18:54.092Z,16.77
2022-10-14T04:21:20.888Z,17.02
2022-10-14T04:23:47.585Z,14.48
2022-10-14T04:26:14.199Z,14.25
2022-10-14T04:28:40.787Z,12.73
2022-10-14T04:31:07.737Z,13.40
2022-10-14T04:33:35.020Z,16.45
2022-10-14T04:36:04.216Z,15.18
2022-10-14T04:38:30.828Z,19.42
2022-10-14T04:40:58.336Z,11.88
2022-10-14T04:43:25.081Z,15.95
2022-10-14T04:45:51.594Z,12.00
2022-10-14T04:48:18.805Z,12.25
2022-10-14T04:50:45.368Z,12.80
2022-10-14T04:53:13.871Z,13.93
2022-10-14T04:55:41.997Z,15.73
2022-10-14T04:58:08.437Z,17.75
2022-10-14T05:00:34.984Z,13.07
2022-10-14T05:03:01.388Z,16.23
2022-10-14T05:05:28.109Z,11.75
2022-10-14T05:07:54.564Z,17.52
2022-10-14T05:10:21.718Z,12.85
2022-10-14T05:12:48.722Z,11.77
2022-10-14T05:15:15.747Z,14.25
2022-10-14T05:17:44.725Z,12.38
2022-10-14T05:20:12.552Z,16.92
2022-10-14T05:22:39.794Z,13.80
2022-10-14T05:25:06.873Z,13.75
2022-10-14T05:27:33.298Z,12.32
2022-10-14T05:30:00.907Z,13.85
2022-10-14T05:32:27.355Z,14.95
2022-10-14T05:34:54.109Z,13.55
2022-10-14T05:37:20.541Z,12.40
2022-10-14T05:39:47.051Z,13.18
2022-10-14T05:42:13.498Z,12.13
2022-10-14T05:44:40.047Z,12.18
2022-10-14T05:47:06.494Z,14.48
2022-10-14T05:49:33.006Z,13.73
2022-10-14T05:51:59.542Z,15.10
2022-10-14T05:54:25.934Z,16.40
2022-10-14T05:56:52.600Z,15.70
2022-10-14T05:59:19.467Z,16.42
2022-10-14T06:01:46.013Z,13.50
2022-10-14T06:04:20.428Z,13.68
2022-10-14T06:06:47.116Z,18.20
2022-10-14T06:09:13.828Z,14.68
2022-10-14T06:11:40.530Z,13.98
2022-10-14T06:14:07.235Z,14.45
2022-10-14T06:16:33.977Z,15.07
2022-10-14T06:19:00.592Z,14.88
2022-10-14T06:21:27.237Z,15.23
2022-10-14T06:23:53.865Z,15.77
2022-10-14T06:26:20.240Z,17.30
2022-10-14T06:28:46.877Z,16.60
2022-10-14T06:31:13.398Z,15.90
2022-10-14T06:33:40.118Z,16.10
2022-10-14T06:36:07.132Z,13.50
2022-10-14T06:38:33.730Z,12.13
2022-10-14T06:41:00.282Z,14.18
2022-10-14T06:43:26.702Z,11.98
2022-10-14T06:45:56.996Z,12.10
2022-10-14T06:48:23.394Z,13.38
2022-10-14T06:50:52.784Z,12.43
2022-10-14T06:53:19.381Z,11.45
2022-10-14T06:55:46.336Z,11.30
2022-10-14T06:58:12.713Z,15.43
2022-10-14T07:00:39.220Z,11.52
2022-10-14T07:03:06.124Z,9.38
2022-10-14T07:05:32.685Z,14.88
2022-10-14T07:10:25.692Z,11.18
2022-10-14T07:12:56.200Z,9.20
2022-10-14T07:15:23.332Z,11.40
2022-10-14T07:17:49.757Z,12.80
2022-10-14T07:20:16.666Z,11.63
2022-10-14T07:22:43.175Z,11.07
2022-10-14T07:25:10.375Z,9.80
2022-10-14T07:27:37.061Z,8.77
2022-10-14T07:30:05.719Z,8.85
2022-10-14T07:32:36.760Z,10.98
2022-10-14T07:35:03.986Z,10.60
2022-10-14T07:37:30.594Z,10.25
2022-10-14T07:39:56.977Z,11.60
2022-10-14T07:42:23.513Z,8.15
2022-10-14T07:44:50.318Z,11.82
2022-10-14T07:47:17.002Z,9.60
2022-10-14T07:49:43.460Z,10.50
2022-10-14T07:52:09.896Z,12.23
2022-10-14T07:54:36.489Z,13.15
2022-10-14T07:57:02.982Z,13.00
2022-10-14T07:59:29.865Z,9.43
2022-10-14T08:01:56.726Z,9.73
2022-10-14T08:04:24.329Z,10.18
2022-10-14T08:06:52.079Z,12.63
2022-10-14T08:09:19.785Z,10.35
2022-10-14T08:11:47.660Z,13.85
2022-10-14T08:14:14.215Z,13.50
2022-10-14T08:16:40.905Z,10.48
2022-10-14T08:19:13.848Z,10.43
2022-10-14T08:21:42.534Z,13.32
2022-10-14T08:24:09.659Z,11.82
2022-10-14T08:26:38.861Z,11.50
2022-10-14T08:29:15.404Z,11.35
2022-10-14T08:31:41.784Z,11.88
2022-10-14T08:34:08.411Z,14.77
2022-10-14T08:36:34.857Z,16.23
2022-10-14T08:39:01.313Z,13.50
2022-10-14T08:42:01.385Z,12.45
2022-10-14T08:44:36.873Z,16.00
2022-10-14T08:47:05.073Z,13.80
2022-10-14T08:49:59.922Z,12.02
2022-10-14T08:52:44.920Z,20.23
2022-10-14T08:55:29.205Z,16.38
2022-10-14T08:58:16.073Z,13.68
2022-10-14T09:00:44.994Z,15.07
2022-10-14T09:03:33.246Z,18.70
2022-10-14T09:06:03.488Z,14.95
2022-10-14T09:08:43.306Z,14.95
2022-10-14T09:11:34.387Z,21.75
2022-10-14T09:14:02.496Z,14.07
2022-10-14T09:16:33.045Z,15.55
2022-10-14T09:19:02.414Z,19.63
2022-10-14T09:21:47.909Z,15.57
2022-10-14T09:24:23.508Z,16.20
2022-10-14T09:27:18.019Z,15.45
2022-10-14T09:29:50.161Z,18.02
2022-10-14T09:32:31.905Z,18.02
2022-10-14T09:34:59.614Z,21.77
2022-10-14T09:37:31.966Z,16.20
2022-10-14T09:40:32.155Z,16.75
2022-10-14T09:43:12.066Z,18.58
2022-10-14T09:45:47.726Z,13.80
2022-10-14T09:48:33.602Z,18.38
2022-10-14T09:51:03.249Z,24.92
2022-10-14T09:53:31.640Z,18.45
2022-10-14T09:56:01.142Z,15.25
2022-10-14T09:58:57.358Z,17.02
2022-10-14T10:01:25.185Z,15.80
2022-10-14T10:03:53.451Z,21.65
2022-10-14T10:06:26.424Z,14.95
2022-10-14T10:08:52.731Z,14.95
2022-10-14T10:11:39.418Z,18.63
2022-10-14T10:14:25.239Z,17.17
2022-10-14T10:17:13.986Z,20.33
2022-10-14T10:19:46.377Z,15.63
2022-10-14T10:22:24.250Z,16.65
2022-10-14T10:25:03.618Z,14.35
2022-10-14T10:27:37.893Z,17.63
2022-10-14T10:30:23.451Z,16.42
2022-10-14T10:35:34.528Z,11.02
2022-10-14T10:38:05.588Z,17.13
2022-10-14T10:41:08.360Z,13.75
2022-10-14T10:43:43.757Z,14.70
2022-10-14T10:46:16.104Z,14.52
2022-10-14T10:48:47.413Z,11.07
2022-10-14T10:51:22.479Z,12.93
2022-10-14T10:54:26.706Z,12.00
2022-10-14T10:56:59.165Z,11.38
2022-10-14T10:59:33.581Z,12.77
2022-10-14T11:02:12.471Z,12.30
2022-10-14T11:05:07.616Z,11.13
2022-10-14T11:08:14.156Z,12.23
2022-10-14T11:11:16.655Z,10.77
2022-10-14T11:13:44.143Z,13.32
2022-10-14T11:16:26.279Z,9.40
2022-10-14T11:19:02.765Z,13.85
2022-10-14T11:21:35.189Z,10.95
2022-10-14T11:24:26.609Z,12.00
2022-10-14T11:27:08.473Z,11.13
2022-10-14T11:29:56.545Z,13.18
2022-10-14T11:32:52.848Z,9.20
2022-10-14T11:38:25.185Z,12.15
2022-10-14T11:41:00.661Z,9.95
2022-10-14T11:43:32.175Z,11.95
2022-10-14T11:46:19.720Z,11.80
2022-10-14T11:48:51.158Z,14.65
2022-10-14T11:51:21.463Z,10.85
2022-10-14T11:54:03.821Z,11.90
2022-10-14T11:56:48.357Z,8.35
2022-10-14T11:59:33.596Z,15.63
2022-10-14T12:02:12.042Z,8.63
2022-10-14T12:04:43.819Z,12.50
2022-10-14T12:07:23.938Z,13.90
2022-10-14T12:10:29.901Z,10.80
2022-10-14T12:12:57.240Z,12.40
2022-10-14T12:15:26.684Z,11.13
2022-10-14T12:18:02.551Z,9.75
2022-10-14T12:21:04.120Z,10.65
2022-10-14T12:23:46.001Z,11.13
2022-10-14T12:26:24.629Z,10.73
2022-10-14T12:28:54.095Z,9.07
2022-10-14T12:31:38.457Z,9.82
2022-10-14T12:34:10.858Z,10.68
2022-10-14T12:36:38.802Z,11.60
2022-10-14T12:39:17.191Z,13.02
2022-10-14T12:42:00.202Z,10.43
2022-10-14T12:44:58.368Z,10.63
2022-10-14T12:47:34.732Z,8.30
2022-10-14T12:50:05.173Z,10.60
2022-10-14T12:52:39.453Z,7.93
2022-10-14T12:55:16.814Z,10.50
2022-10-14T12:57:43.674Z,10.73
2022-10-14T13:00:22.491Z,9.23
2022-10-14T13:02:56.958Z,10.02
2022-10-14T13:05:26.279Z,7.60
2022-10-14T13:08:20.190Z,9.20
2022-10-14T13:10:58.821Z,10.40
2022-10-14T13:13:49.179Z,8.57
2022-10-14T13:16:21.562Z,11.65
2022-10-14T13:18:52.542Z,10.82
2022-10-14T13:21:34.605Z,11.30
2022-10-14T13:24:22.934Z,13.68
2022-10-14T13:26:49.318Z,8.07
2022-10-14T13:29:50.165Z,7.68
2022-10-14T13:32:41.414Z,7.93
2022-10-14T13:35:29.140Z,8.60
2022-10-14T13:38:06.326Z,8.15
2022-10-14T13:40:42.995Z,9.35
2022-10-14T13:43:15.376Z,7.72
2022-10-14T13:45:48.802Z,9.43
2022-10-14T13:48:28.104Z,9.40
2022-10-14T13:51:23.923Z,7.15
2022-10-14T13:53:57.041Z,7.25
2022-10-14T13:56:29.846Z,7.45
2022-10-14T13:58:57.848Z,9.05
2022-10-14T14:01:39.193Z,6.53
2022-10-14T14:04:06.042Z,11.55
2022-10-14T14:06:40.051Z,7.70
2022-10-14T14:09:26.035Z,6.00
2022-10-14T14:11:59.796Z,5.30
2022-10-14T14:14:37.833Z,6.20
2022-10-14T14:17:07.782Z,6.53
2022-10-14T14:19:37.134Z,6.25
2022-10-14T14:22:28.927Z,6.40
2022-10-14T14:25:33.339Z,5.38
2022-10-14T14:28:03.326Z,4.68
2022-10-14T14:30:38.613Z,4.43
2022-10-14T14:33:11.753Z,11.32
2022-10-14T14:35:38.434Z,14.05
2022-10-14T14:38:04.832Z,8.82
2022-10-14T14:40:31.798Z,12.02
2022-10-14T14:43:03.673Z,6.55
2022-10-14T14:45:34.911Z,8.80
2022-10-14T14:48:07.580Z,4.53
2022-10-14T14:50:40.055Z,3.85
2022-10-14T14:53:23.778Z,3.35
2022-10-14T14:55:53.422Z,3.92
2022-10-14T14:58:43.995Z,4.57
2022-10-14T15:01:20.329Z,5.53
2022-10-14T15:04:12.396Z,7.13
2022-10-14T15:06:50.716Z,3.70
2022-10-14T15:09:24.228Z,6.10
2022-10-14T15:11:54.704Z,3.80
2022-10-14T15:14:44.003Z,3.47
2022-10-14T15:17:27.548Z,3.33
2022-10-14T15:19:54.258Z,3.53
2022-10-14T15:22:28.846Z,4.15
2022-10-14T15:25:09.942Z,3.05
2022-10-14T15:27:36.334Z,4.97
2022-10-14T15:30:23.332Z,3.20
2022-10-14T15:32:52.150Z,4.40
2022-10-14T15:35:21.495Z,2.33
2022-10-14T15:37:49.632Z,4.15
2022-10-14T15:40:27.420Z,2.83
2022-10-14T15:42:53.931Z,2.80
2022-10-14T15:45:20.679Z,4.95
2022-10-14T15:47:54.059Z,3.53
2022-10-14T15:50:24.156Z,2.60
2022-10-14T15:52:53.276Z,2.70
2022-10-14T15:55:28.182Z,3.22
2022-10-14T15:57:54.654Z,6.32
2022-10-14T16:00:23.904Z,3.80
2022-10-14T16:02:59.054Z,3.72
2022-10-14T16:07:52.684Z,3.65
2022-10-14T16:10:21.482Z,5.47
2022-10-14T16:12:49.027Z,2.80
2022-10-14T16:15:37.451Z,4.57
2022-10-14T16:18:04.123Z,2.95
2022-10-14T16:20:30.980Z,3.20
2022-10-14T16:22:58.393Z,3.55
2022-10-14T16:25:35.083Z,2.58
2022-10-14T16:28:01.699Z,3.58
2022-10-14T16:30:28.291Z,3.03
2022-10-14T16:32:55.170Z,2.90
2022-10-14T16:35:21.701Z,5.65
2022-10-14T16:37:48.850Z,3.08
2022-10-14T16:40:15.629Z,3.17
2022-10-14T16:42:42.054Z,3.20
2022-10-14T16:45:09.071Z,4.93
2022-10-14T16:47:35.501Z,7.72
2022-10-14T16:50:02.158Z,7.10
2022-10-14T16:52:28.610Z,5.05
2022-10-14T16:54:55.196Z,3.70
2022-10-14T16:57:21.660Z,3.92
2022-10-14T16:59:49.289Z,3.67
2022-10-14T17:02:16.670Z,3.80
2022-10-14T17:04:46.399Z,4.72
2022-10-14T17:07:14.701Z,3.33
2022-10-14T17:09:41.320Z,4.60
2022-10-14T17:12:12.879Z,5.82
2022-10-14T17:14:41.069Z,3.78
2022-10-14T17:17:07.745Z,4.10
2022-10-14T17:19:34.271Z,3.60
2022-10-14T17:22:01.990Z,3.97
2022-10-14T17:24:29.492Z,4.90
2022-10-14T17:26:56.405Z,4.13
2022-10-14T17:29:22.881Z,4.40
2022-10-14T17:31:49.639Z,4.30
2022-10-14T17:34:16.077Z,5.85
2022-10-14T17:36:43.941Z,4.72
2022-10-14T17:39:21.463Z,4.78
2022-10-14T17:41:53.986Z,6.07
2022-10-14T17:44:20.625Z,4.30
2022-10-14T17:46:47.078Z,5.38
2022-10-14T17:49:15.051Z,5.30
2022-10-14T17:51:41.825Z,5.80
2022-10-14T17:54:11.297Z,8.88
2022-10-14T17:56:38.723Z,5.90
2022-10-14T17:59:07.519Z,6.15
2022-10-14T18:02:01.032Z,8.07
2022-10-14T18:06:53.998Z,7.55
2022-10-14T18:09:20.429Z,10.95
2022-10-14T18:12:07.827Z,7.60
2022-10-14T18:14:34.949Z,10.23
2022-10-14T18:17:01.790Z,9.23
2022-10-14T18:19:28.307Z,6.30
2022-10-14T18:21:54.924Z,7.40
2022-10-14T18:24:21.375Z,7.50
2022-10-14T18:26:51.467Z,8.48
2022-10-14T18:29:17.879Z,9.13
2022-10-14T18:31:44.453Z,8.40
2022-10-14T18:34:11.714Z,9.18
2022-10-14T18:36:38.570Z,8.65
2022-10-14T18:39:08.041Z,6.70
2022-10-14T18:41:36.881Z,6.60
2022-10-14T18:44:05.186Z,5.45
2022-10-14T18:46:34.035Z,4.80
2022-10-14T18:49:01.937Z,7.43
2022-10-14T18:51:40.158Z,6.53
2022-10-14T18:54:15.069Z,6.07
2022-10-14T18:56:42.105Z,5.82
2022-10-14T18:59:19.313Z,5.43
2022-10-14T19:01:47.516Z,5.65
2022-10-14T19:04:15.528Z,5.85
2022-10-14T19:06:45.765Z,4.50
2022-10-14T19:09:13.590Z,5.70
2022-10-14T19:11:41.192Z,8.55
2022-10-14T19:14:08.110Z,6.63
2022-10-14T19:16:36.621Z,6.47
2022-10-14T19:19:18.192Z,5.43
2022-10-14T19:21:47.466Z,5.60
2022-10-14T19:24:15.479Z,5.55
2022-10-14T19:26:44.076Z,5.03
2022-10-14T19:29:12.998Z,5.90
2022-10-14T19:31:40.773Z,5.07
2022-10-14T19:34:10.179Z,5.07
2022-10-14T19:36:39.293Z,8.60
2022-10-14T19:39:08.124Z,5.10
2022-10-14T19:41:42.881Z,5.28
2022-10-14T19:44:10.685Z,5.15
2022-10-14T19:46:37.508Z,7.35
2022-10-14T19:49:04.652Z,7.80
2022-10-14T19:51:33.030Z,5.95
2022-10-14T19:54:00.273Z,6.97
2022-10-14T19:56:27.169Z,6.63
2022-10-14T19:58:55.877Z,7.35
2022-10-14T20:01:25.148Z,5.63
2022-10-14T20:03:52.396Z,6.45
2022-10-14T20:06:20.335Z,6.75
2022-10-14T20:08:46.897Z,6.43
2022-10-14T20:11:17.855Z,7.90
2022-10-14T20:13:45.106Z,7.60
2022-10-14T20:16:12.493Z,6.70
2022-10-14T20:18:39.383Z,8.00
2022-10-14T20:21:07.015Z,6.72
2022-10-14T20:23:40.549Z,7.38
2022-10-14T20:26:19.790Z,8.13
2022-10-14T20:28:47.335Z,6.10
2022-10-14T20:31:16.457Z,6.93
2022-10-14T20:33:43.467Z,7.10
2022-10-14T20:36:15.880Z,7.50
2022-10-14T20:38:43.447Z,6.30
2022-10-14T20:41:16.180Z,6.95
2022-10-14T20:43:44.171Z,5.72
2022-10-14T20:46:11.091Z,6.55
2022-10-14T20:48:37.885Z,6.22
2022-10-14T20:51:05.687Z,5.88
2022-10-14T20:53:32.760Z,5.85
2022-10-14T20:56:08.279Z,5.63
2022-10-14T20:58:35.545Z,5.22
2022-10-14T21:01:10.789Z,5.93
2022-10-14T21:03:37.929Z,6.05
2022-10-14T21:06:06.102Z,4.78
2022-10-14T21:08:33.211Z,4.97
2022-10-14T21:11:01.046Z,7.15
2022-10-14T21:13:29.652Z,5.10
2022-10-14T21:15:56.395Z,6.10
2022-10-14T21:18:23.938Z,8.57
2022-10-14T21:23:22.370Z,6.47
2022-10-14T21:25:56.730Z,4.78
2022-10-14T21:28:23.747Z,4.37
2022-10-14T21:30:50.426Z,4.85
2022-10-14T21:33:16.975Z,4.65
2022-10-14T21:35:43.518Z,4.90
2022-10-14T21:38:09.996Z,7.25
2022-10-14T21:40:36.746Z,5.80
2022-10-14T21:43:03.234Z,4.55
2022-10-14T21:45:29.789Z,5.57
2022-10-14T21:47:56.250Z,6.95
2022-10-14T21:50:22.731Z,5.35
2022-10-14T21:52:49.160Z,6.63
2022-10-14T21:55:15.522Z,6.07
2022-10-14T21:57:42.070Z,5.30
2022-10-14T22:00:10.577Z,7.20
2022-10-14T22:02:37.099Z,6.03
2022-10-14T22:05:03.851Z,4.85
2022-10-14T22:07:31.124Z,6.63
2022-10-14T22:09:57.552Z,4.75
2022-10-14T22:12:24.431Z,6.32
2022-10-14T22:14:50.904Z,6.50
2022-10-14T22:17:17.360Z,6.40
2022-10-14T22:19:43.824Z,9.48
2022-10-14T22:22:11.408Z,5.93
2022-10-14T22:24:37.869Z,7.38
2022-10-14T22:27:04.429Z,6.97
2022-10-14T22:29:30.869Z,6.05
2022-10-14T22:31:57.347Z,6.97
2022-10-14T22:34:24.019Z,6.88
2022-10-14T22:36:50.442Z,7.10
2022-10-14T22:39:17.173Z,5.72
2022-10-14T22:41:43.686Z,7.45
2022-10-14T22:44:10.707Z,5.78
2022-10-14T22:46:39.034Z,6.10
2022-10-14T22:49:06.121Z,5.63
2022-10-14T22:51:36.130Z,5.78
2022-10-14T22:54:02.810Z,5.38
2022-10-14T22:56:30.843Z,5.70
2022-10-14T22:59:06.485Z,6.63
2022-10-14T23:01:34.125Z,6.57
2022-10-14T23:04:01.511Z,10.68
2022-10-14T23:06:29.121Z,15.90
2022-10-14T23:08:56.250Z,8.43
2022-10-14T23:11:24.802Z,6.78
2022-10-14T23:13:51.802Z,5.72
2022-10-14T23:16:20.766Z,5.45
2022-10-14T23:18:48.221Z,8.60
2022-10-14T23:21:25.820Z,7.20
2022-10-14T23:23:53.661Z,7.30
2022-10-14T23:26:22.755Z,7.82
2022-10-14T23:28:51.452Z,7.25
2022-10-14T23:31:20.710Z,5.45
2022-10-14T23:33:49.044Z,7.18
2022-10-14T23:36:16.258Z,6.32
2022-10-14T23:38:43.424Z,7.43
2022-10-14T23:41:11.570Z,6.93
2022-10-14T23:43:38.503Z,7.45
2022-10-14T23:46:05.792Z,12.10
2022-10-14T23:48:32.885Z,7.45
2022-10-14T23:50:59.930Z,8.10
2022-10-14T23:53:27.208Z,7.00
2022-10-14T23:55:55.037Z,9.50
2022-10-14T23:58:22.999Z,8.68
